Terminal Aerodrome Forecast
Issued by NWS Mt. Holly, NJ

Home | Current Version | Previous Version | Text Only | Print | Product List | Glossary On
Versions: 1 2 3 4 5 6 7 8 9 10 11 12 13 14 15 16 17 18 19 20 21 22 23 24 25 26 27 28 29 30 31 32
280
FTUS41 KPHI 130527 CCA
TAFPHL
TAF COR
KPHL 130527Z 1306/1412 28010KT P6SM SCT035 OVC050
      TEMPO 1306/1308 6SM -SHSN
     FM131000 30015G22KT P6SM SCT035 OVC050
      TEMPO 1310/1312 6SM -SHSN
     FM131300 31020G30KT P6SM SCT035 OVC050
     FM131500 31022G35KT P6SM BKN050
     FM140000 31016G25KT P6SM SCT050=

USA.gov is the U.S. government's official web portal to all federal, state and local government web resources and services.